Impacts METAR Board
IDs:

KEWR - Newark Intl, NJ, US

Updated at: 1200 UTC 16 Sep 2019
Potential Impact None Slight Moderate High
Time 16/00Z 16/01Z 16/02Z 16/03Z 16/04Z 16/05Z 16/06Z 16/07Z 16/08Z 16/09Z 16/10Z 16/11Z 16/12Z
Temp78 77 76 75 72 68 68 70 69 69 69 71 70
Dewpt55 55 56 57 58 58 58 58 59 58 59 59 60
Altim30.07 30.07 30.07 30.06 30.06 30.06 30.06 30.05 30.05 30.05 30.05 30.07 30.07
VIS10 10 10 10 10 10 10 10 10 10 10 10 10
CIG200 250 250 -- -- 150 160 170 100 140 85 120 80
CoverBKNBKNBKNSCTSCTBKNBKNBKNOVCBKNOVCBKNBKN
FltCatVFRVFRVFRVFRVFRVFRVFRVFRVFRVFRVFRVFRVFR
WX---------------------RA----
WDir2502602802602602202202502602500230260
WSpd6 5 5 6 5 4 4 3 4 3 0 6 4
WGst-- -- -- -- -- -- -- -- -- -- -- -- --
Raw hourly METARs
KEWR 152351Z 25006KT 10SM SCT110 BKN200 BKN250 26/13 A3007 RMK AO2 SLP183 T02560128 10289 20256 55001
KEWR 160051Z 26005KT 10SM FEW110 SCT170 BKN250 25/13 A3007 RMK AO2 SLP182 T02500128
KEWR 160151Z 28005KT 10SM FEW170 BKN250 24/13 A3007 RMK AO2 SLP183 T02440133
KEWR 160251Z 26006KT 10SM FEW180 SCT250 24/14 A3006 RMK AO2 SLP180 T02390139 58004
KEWR 160351Z 26005KT 10SM FEW180 SCT250 22/14 A3006 RMK AO2 SLP179 T02220144
KEWR 160451Z 22004KT 10SM BKN150 BKN250 20/14 A3006 RMK AO2 SLP179 T02000144 402890200
KEWR 160551Z 22004KT 10SM BKN160 BKN250 20/14 A3006 RMK AO2 SLP179 T02000144 10256 20194 56001
KEWR 160651Z 25003KT 10SM BKN170 BKN250 21/14 A3005 RMK AO2 SLP176 T02110144
KEWR 160751Z 26004KT 10SM BKN100 BKN170 OVC250 21/15 A3005 RMK AO2 SLP176 T02060150
KEWR 160851Z 25003KT 10SM SCT100 BKN140 BKN250 21/14 A3005 RMK AO2 SLP175 T02060144 56004
KEWR 160951Z 00000KT 10SM -RA OVC085 21/15 A3005 RMK AO2 RAB45 SLP177 P0000 T02060150
KEWR 161051Z 23006KT 10SM SCT095 BKN120 22/15 A3007 RMK AO2 RAE0954 SLP180 P0000 T02170150
KEWR 161151Z 26004KT 10SM BKN080 BKN110 21/16 A3007 RMK AO2 SLP182 60000 T02110156 10222 20200 51007



Page loaded:  12:53 UTC  |   05:53 AM Pacific  |   06:53 AM Mountain  |   07:53 AM Central  |   08:53 AM Eastern

 

ADVISORIES

FORECASTS

FORECASTS

OBSERVATIONS

USER TOOLS

ABOUT US